sensor_id;sensor_type;location;lat;lon;timestamp;P1;durP1;ratioP1;P2;durP2;ratioP2
12631;SDS011;6381;45.748;12.106;2023-05-08T00:00:29;6.05;;;5.47;;
12631;SDS011;6381;45.748;12.106;2023-05-08T00:02:59;5.82;;;5.22;;
12631;SDS011;6381;45.748;12.106;2023-05-08T00:05:29;5.65;;;5.03;;
12631;SDS011;6381;45.748;12.106;2023-05-08T00:07:59;5.07;;;4.68;;
12631;SDS011;6381;45.748;12.106;2023-05-08T00:10:31;5.55;;;4.65;;
12631;SDS011;6381;45.748;12.106;2023-05-08T00:13:01;5.82;;;4.90;;
12631;SDS011;6381;45.748;12.106;2023-05-08T00:15:31;4.93;;;4.53;;
12631;SDS011;6381;45.748;12.106;2023-05-08T00:18:01;4.82;;;4.43;;
12631;SDS011;6381;45.748;12.106;2023-05-08T00:20:31;5.70;;;5.07;;
12631;SDS011;6381;45.748;12.106;2023-05-08T00:23:00;5.68;;;5.18;;
12631;SDS011;6381;45.748;12.106;2023-05-08T00:25:32;5.32;;;4.82;;
12631;SDS011;6381;45.748;12.106;2023-05-08T00:28:02;5.30;;;4.68;;
12631;SDS011;6381;45.748;12.106;2023-05-08T00:30:31;5.30;;;4.80;;
12631;SDS011;6381;45.748;12.106;2023-05-08T00:33:01;5.95;;;5.00;;
12631;SDS011;6381;45.748;12.106;2023-05-08T00:35:32;5.90;;;5.25;;
12631;SDS011;6381;45.748;12.106;2023-05-08T00:38:02;5.20;;;4.70;;
12631;SDS011;6381;45.748;12.106;2023-05-08T00:40:33;5.53;;;5.13;;
12631;SDS011;6381;45.748;12.106;2023-05-08T00:43:03;5.30;;;4.90;;
12631;SDS011;6381;45.748;12.106;2023-05-08T00:45:34;5.80;;;5.30;;
12631;SDS011;6381;45.748;12.106;2023-05-08T00:48:05;5.95;;;5.45;;
12631;SDS011;6381;45.748;12.106;2023-05-08T00:50:36;6.15;;;5.55;;
12631;SDS011;6381;45.748;12.106;2023-05-08T00:53:06;6.15;;;5.47;;
12631;SDS011;6381;45.748;12.106;2023-05-08T00:55:37;6.97;;;6.20;;
12631;SDS011;6381;45.748;12.106;2023-05-08T00:58:07;6.78;;;6.18;;
12631;SDS011;6381;45.748;12.106;2023-05-08T01:00:38;9.13;;;8.23;;
12631;SDS011;6381;45.748;12.106;2023-05-08T01:03:09;6.65;;;5.63;;
12631;SDS011;6381;45.748;12.106;2023-05-08T01:05:39;8.52;;;5.03;;
12631;SDS011;6381;45.748;12.106;2023-05-08T01:08:09;5.07;;;4.68;;
12631;SDS011;6381;45.748;12.106;2023-05-08T01:10:43;5.30;;;4.80;;
12631;SDS011;6381;45.748;12.106;2023-05-08T01:13:20;4.63;;;4.07;;
12631;SDS011;6381;45.748;12.106;2023-05-08T01:15:59;8.75;;;3.95;;
12631;SDS011;6381;45.748;12.106;2023-05-08T01:18:40;5.43;;;3.70;;
12631;SDS011;6381;45.748;12.106;2023-05-08T01:21:16;3.92;;;3.53;;
12631;SDS011;6381;45.748;12.106;2023-05-08T01:24:11;5.63;;;4.20;;
12631;SDS011;6381;45.748;12.106;2023-05-08T01:30:12;5.30;;;4.80;;
12631;SDS011;6381;45.748;12.106;2023-05-08T01:33:03;6.07;;;5.47;;
12631;SDS011;6381;45.748;12.106;2023-05-08T01:35:40;6.45;;;5.93;;
12631;SDS011;6381;45.748;12.106;2023-05-08T01:38:17;6.63;;;5.57;;
12631;SDS011;6381;45.748;12.106;2023-05-08T01:40:51;7.90;;;5.78;;
12631;SDS011;6381;45.748;12.106;2023-05-08T01:43:26;5.85;;;5.25;;
12631;SDS011;6381;45.748;12.106;2023-05-08T01:45:59;6.70;;;6.10;;
12631;SDS011;6381;45.748;12.106;2023-05-08T01:48:33;5.80;;;5.30;;
12631;SDS011;6381;45.748;12.106;2023-05-08T01:51:09;5.65;;;5.15;;
12631;SDS011;6381;45.748;12.106;2023-05-08T01:53:47;6.88;;;5.57;;
12631;SDS011;6381;45.748;12.106;2023-05-08T01:56:20;5.70;;;5.20;;
12631;SDS011;6381;45.748;12.106;2023-05-08T01:58:53;5.53;;;5.03;;
12631;SDS011;6381;45.748;12.106;2023-05-08T02:01:26;5.85;;;5.35;;
12631;SDS011;6381;45.748;12.106;2023-05-08T02:03:59;5.90;;;5.40;;
12631;SDS011;6381;45.748;12.106;2023-05-08T02:06:30;7.65;;;6.40;;
12631;SDS011;6381;45.748;12.106;2023-05-08T02:09:01;7.65;;;6.65;;
12631;SDS011;6381;45.748;12.106;2023-05-08T02:11:32;6.68;;;6.10;;
12631;SDS011;6381;45.748;12.106;2023-05-08T02:14:04;7.57;;;6.88;;
12631;SDS011;6381;45.748;12.106;2023-05-08T02:16:36;6.93;;;5.88;;
12631;SDS011;6381;45.748;12.106;2023-05-08T02:19:08;6.93;;;5.80;;
12631;SDS011;6381;45.748;12.106;2023-05-08T02:21:39;7.37;;;5.87;;
12631;SDS011;6381;45.748;12.106;2023-05-08T02:24:09;6.10;;;5.60;;
12631;SDS011;6381;45.748;12.106;2023-05-08T02:26:41;6.47;;;5.63;;
12631;SDS011;6381;45.748;12.106;2023-05-08T02:29:13;7.03;;;5.70;;
12631;SDS011;6381;45.748;12.106;2023-05-08T02:31:44;6.63;;;6.00;;
12631;SDS011;6381;45.748;12.106;2023-05-08T02:34:18;6.90;;;6.05;;
12631;SDS011;6381;45.748;12.106;2023-05-08T02:36:49;6.05;;;5.43;;
12631;SDS011;6381;45.748;12.106;2023-05-08T02:39:23;6.45;;;5.22;;
12631;SDS011;6381;45.748;12.106;2023-05-08T02:41:55;7.38;;;5.57;;
12631;SDS011;6381;45.748;12.106;2023-05-08T02:44:26;10.52;;;6.05;;
12631;SDS011;6381;45.748;12.106;2023-05-08T02:46:57;7.70;;;6.55;;
12631;SDS011;6381;45.748;12.106;2023-05-08T02:49:36;6.75;;;6.15;;
12631;SDS011;6381;45.748;12.106;2023-05-08T02:52:15;6.20;;;5.70;;
12631;SDS011;6381;45.748;12.106;2023-05-08T02:54:49;6.28;;;5.65;;
12631;SDS011;6381;45.748;12.106;2023-05-08T02:57:27;7.53;;;5.25;;
12631;SDS011;6381;45.748;12.106;2023-05-08T03:00:04;5.50;;;5.00;;
12631;SDS011;6381;45.748;12.106;2023-05-08T03:02:41;5.22;;;4.55;;
12631;SDS011;6381;45.748;12.106;2023-05-08T03:05:18;4.50;;;4.03;;
12631;SDS011;6381;45.748;12.106;2023-05-08T03:07:53;5.28;;;4.45;;
12631;SDS011;6381;45.748;12.106;2023-05-08T03:10:27;4.30;;;3.85;;
12631;SDS011;6381;45.748;12.106;2023-05-08T03:13:01;4.97;;;4.47;;
12631;SDS011;6381;45.748;12.106;2023-05-08T03:15:35;4.85;;;4.45;;
12631;SDS011;6381;45.748;12.106;2023-05-08T03:18:10;6.43;;;5.68;;
12631;SDS011;6381;45.748;12.106;2023-05-08T03:20:44;6.60;;;5.78;;
12631;SDS011;6381;45.748;12.106;2023-05-08T03:23:18;7.35;;;6.65;;
12631;SDS011;6381;45.748;12.106;2023-05-08T03:25:49;8.32;;;7.53;;
12631;SDS011;6381;45.748;12.106;2023-05-08T03:28:20;9.02;;;8.15;;
12631;SDS011;6381;45.748;12.106;2023-05-08T03:30:52;9.73;;;8.82;;
12631;SDS011;6381;45.748;12.106;2023-05-08T03:33:24;10.05;;;9.15;;
12631;SDS011;6381;45.748;12.106;2023-05-08T03:35:59;10.50;;;9.50;;
12631;SDS011;6381;45.748;12.106;2023-05-08T03:38:28;10.52;;;9.50;;
12631;SDS011;6381;45.748;12.106;2023-05-08T03:40:59;11.82;;;10.70;;
12631;SDS011;6381;45.748;12.106;2023-05-08T03:43:31;10.52;;;9.63;;
12631;SDS011;6381;45.748;12.106;2023-05-08T03:46:06;10.55;;;9.63;;
12631;SDS011;6381;45.748;12.106;2023-05-08T03:48:36;10.68;;;9.68;;
12631;SDS011;6381;45.748;12.106;2023-05-08T03:51:10;10.90;;;9.73;;
12631;SDS011;6381;45.748;12.106;2023-05-08T03:53:41;11.35;;;10.02;;
12631;SDS011;6381;45.748;12.106;2023-05-08T03:56:12;10.65;;;9.73;;
12631;SDS011;6381;45.748;12.106;2023-05-08T03:58:43;9.77;;;8.90;;
12631;SDS011;6381;45.748;12.106;2023-05-08T04:01:21;9.93;;;9.02;;
12631;SDS011;6381;45.748;12.106;2023-05-08T04:03:54;13.82;;;8.90;;
12631;SDS011;6381;45.748;12.106;2023-05-08T04:06:33;9.05;;;8.25;;
12631;SDS011;6381;45.748;12.106;2023-05-08T04:09:22;9.27;;;8.48;;
12631;SDS011;6381;45.748;12.106;2023-05-08T04:11:59;9.15;;;8.20;;
12631;SDS011;6381;45.748;12.106;2023-05-08T04:14:35;9.02;;;8.20;;
12631;SDS011;6381;45.748;12.106;2023-05-08T04:17:23;8.75;;;7.95;;
12631;SDS011;6381;45.748;12.106;2023-05-08T04:20:03;8.00;;;7.30;;
12631;SDS011;6381;45.748;12.106;2023-05-08T04:22:36;8.52;;;7.68;;
12631;SDS011;6381;45.748;12.106;2023-05-08T04:25:08;8.48;;;7.78;;
12631;SDS011;6381;45.748;12.106;2023-05-08T04:27:41;8.20;;;7.40;;
12631;SDS011;6381;45.748;12.106;2023-05-08T04:30:12;8.00;;;7.30;;
12631;SDS011;6381;45.748;12.106;2023-05-08T04:32:43;7.38;;;6.78;;
12631;SDS011;6381;45.748;12.106;2023-05-08T04:35:15;7.78;;;7.07;;
12631;SDS011;6381;45.748;12.106;2023-05-08T04:37:48;8.00;;;7.38;;
12631;SDS011;6381;45.748;12.106;2023-05-08T04:40:17;7.97;;;7.18;;
12631;SDS011;6381;45.748;12.106;2023-05-08T04:42:47;7.65;;;6.95;;
12631;SDS011;6381;45.748;12.106;2023-05-08T04:45:18;8.52;;;7.78;;
12631;SDS011;6381;45.748;12.106;2023-05-08T04:47:49;8.07;;;7.47;;
12631;SDS011;6381;45.748;12.106;2023-05-08T04:50:20;8.40;;;7.60;;
12631;SDS011;6381;45.748;12.106;2023-05-08T04:52:51;7.80;;;7.15;;
12631;SDS011;6381;45.748;12.106;2023-05-08T04:55:22;7.95;;;7.25;;
12631;SDS011;6381;45.748;12.106;2023-05-08T04:57:52;8.25;;;7.53;;
12631;SDS011;6381;45.748;12.106;2023-05-08T05:00:22;8.10;;;7.30;;
12631;SDS011;6381;45.748;12.106;2023-05-08T05:02:52;8.23;;;7.55;;
12631;SDS011;6381;45.748;12.106;2023-05-08T05:05:23;7.55;;;6.95;;
12631;SDS011;6381;45.748;12.106;2023-05-08T05:07:55;8.02;;;7.22;;
12631;SDS011;6381;45.748;12.106;2023-05-08T05:10:24;7.30;;;6.63;;
12631;SDS011;6381;45.748;12.106;2023-05-08T05:12:54;8.10;;;7.30;;
12631;SDS011;6381;45.748;12.106;2023-05-08T05:15:25;8.02;;;7.32;;
12631;SDS011;6381;45.748;12.106;2023-05-08T05:17:55;8.27;;;7.57;;
12631;SDS011;6381;45.748;12.106;2023-05-08T05:20:25;8.35;;;7.55;;
12631;SDS011;6381;45.748;12.106;2023-05-08T05:22:57;8.77;;;7.88;;
12631;SDS011;6381;45.748;12.106;2023-05-08T05:25:27;9.00;;;8.20;;
12631;SDS011;6381;45.748;12.106;2023-05-08T05:27:58;9.65;;;8.80;;
12631;SDS011;6381;45.748;12.106;2023-05-08T05:30:28;9.68;;;8.70;;
12631;SDS011;6381;45.748;12.106;2023-05-08T05:32:58;9.60;;;8.70;;
12631;SDS011;6381;45.748;12.106;2023-05-08T05:35:28;8.90;;;8.00;;
12631;SDS011;6381;45.748;12.106;2023-05-08T05:37:59;9.57;;;8.77;;
12631;SDS011;6381;45.748;12.106;2023-05-08T05:40:29;9.75;;;8.85;;
12631;SDS011;6381;45.748;12.106;2023-05-08T05:42:59;10.00;;;9.20;;
12631;SDS011;6381;45.748;12.106;2023-05-08T05:45:29;10.55;;;9.68;;
12631;SDS011;6381;45.748;12.106;2023-05-08T05:48:00;10.68;;;9.77;;
12631;SDS011;6381;45.748;12.106;2023-05-08T05:50:31;12.45;;;9.02;;
12631;SDS011;6381;45.748;12.106;2023-05-08T05:53:03;12.07;;;11.05;;
12631;SDS011;6381;45.748;12.106;2023-05-08T05:55:34;11.00;;;9.93;;
12631;SDS011;6381;45.748;12.106;2023-05-08T05:58:04;13.25;;;10.05;;
12631;SDS011;6381;45.748;12.106;2023-05-08T06:00:34;12.07;;;10.48;;
12631;SDS011;6381;45.748;12.106;2023-05-08T06:03:04;11.38;;;10.23;;
12631;SDS011;6381;45.748;12.106;2023-05-08T06:05:34;11.68;;;10.60;;
12631;SDS011;6381;45.748;12.106;2023-05-08T06:08:10;11.35;;;10.35;;
12631;SDS011;6381;45.748;12.106;2023-05-08T06:10:40;14.18;;;11.35;;
12631;SDS011;6381;45.748;12.106;2023-05-08T06:13:09;11.80;;;10.60;;
12631;SDS011;6381;45.748;12.106;2023-05-08T06:15:39;11.27;;;10.27;;
12631;SDS011;6381;45.748;12.106;2023-05-08T06:18:09;10.85;;;9.85;;
12631;SDS011;6381;45.748;12.106;2023-05-08T06:20:39;11.10;;;10.10;;
12631;SDS011;6381;45.748;12.106;2023-05-08T06:23:10;11.30;;;9.82;;
12631;SDS011;6381;45.748;12.106;2023-05-08T06:25:40;10.20;;;9.35;;
12631;SDS011;6381;45.748;12.106;2023-05-08T06:28:10;9.82;;;9.02;;
12631;SDS011;6381;45.748;12.106;2023-05-08T06:30:40;10.80;;;9.80;;
12631;SDS011;6381;45.748;12.106;2023-05-08T06:33:10;10.25;;;9.40;;
12631;SDS011;6381;45.748;12.106;2023-05-08T06:35:39;11.05;;;10.05;;
12631;SDS011;6381;45.748;12.106;2023-05-08T06:38:11;12.07;;;11.02;;
12631;SDS011;6381;45.748;12.106;2023-05-08T06:40:45;11.20;;;10.20;;
12631;SDS011;6381;45.748;12.106;2023-05-08T06:43:16;11.30;;;10.38;;
12631;SDS011;6381;45.748;12.106;2023-05-08T06:45:45;11.60;;;10.45;;
12631;SDS011;6381;45.748;12.106;2023-05-08T06:48:15;11.70;;;10.55;;
12631;SDS011;6381;45.748;12.106;2023-05-08T06:50:45;11.00;;;10.00;;
12631;SDS011;6381;45.748;12.106;2023-05-08T06:53:17;10.65;;;9.73;;
12631;SDS011;6381;45.748;12.106;2023-05-08T06:55:46;11.70;;;10.75;;
12631;SDS011;6381;45.748;12.106;2023-05-08T06:58:16;12.25;;;11.25;;
12631;SDS011;6381;45.748;12.106;2023-05-08T07:00:46;12.07;;;10.90;;
12631;SDS011;6381;45.748;12.106;2023-05-08T07:03:16;11.63;;;10.57;;
12631;SDS011;6381;45.748;12.106;2023-05-08T07:05:46;11.48;;;10.55;;
12631;SDS011;6381;45.748;12.106;2023-05-08T07:08:17;11.88;;;10.77;;
12631;SDS011;6381;45.748;12.106;2023-05-08T07:10:47;11.88;;;10.88;;
12631;SDS011;6381;45.748;12.106;2023-05-08T07:13:17;11.05;;;9.95;;
12631;SDS011;6381;45.748;12.106;2023-05-08T07:15:48;9.77;;;8.90;;
12631;SDS011;6381;45.748;12.106;2023-05-08T07:18:19;10.23;;;9.27;;
12631;SDS011;6381;45.748;12.106;2023-05-08T07:20:49;9.52;;;8.73;;
12631;SDS011;6381;45.748;12.106;2023-05-08T07:23:21;9.68;;;8.88;;
12631;SDS011;6381;45.748;12.106;2023-05-08T07:25:50;9.05;;;8.25;;
12631;SDS011;6381;45.748;12.106;2023-05-08T07:28:20;9.05;;;8.25;;
12631;SDS011;6381;45.748;12.106;2023-05-08T07:30:50;8.88;;;8.18;;
12631;SDS011;6381;45.748;12.106;2023-05-08T07:33:20;10.25;;;9.23;;
12631;SDS011;6381;45.748;12.106;2023-05-08T07:35:50;9.15;;;8.45;;
12631;SDS011;6381;45.748;12.106;2023-05-08T07:38:21;9.85;;;9.02;;
12631;SDS011;6381;45.748;12.106;2023-05-08T07:40:51;9.07;;;8.38;;
12631;SDS011;6381;45.748;12.106;2023-05-08T07:43:23;10.02;;;9.13;;
12631;SDS011;6381;45.748;12.106;2023-05-08T07:45:53;10.77;;;9.77;;
12631;SDS011;6381;45.748;12.106;2023-05-08T07:48:25;10.50;;;9.60;;
12631;SDS011;6381;45.748;12.106;2023-05-08T07:50:55;9.88;;;9.00;;
12631;SDS011;6381;45.748;12.106;2023-05-08T07:53:28;9.43;;;8.63;;
12631;SDS011;6381;45.748;12.106;2023-05-08T07:55:58;10.05;;;9.00;;
12631;SDS011;6381;45.748;12.106;2023-05-08T07:58:29;8.73;;;8.02;;
12631;SDS011;6381;45.748;12.106;2023-05-08T08:00:59;9.93;;;8.93;;
12631;SDS011;6381;45.748;12.106;2023-05-08T08:03:29;8.95;;;8.10;;
12631;SDS011;6381;45.748;12.106;2023-05-08T08:06:00;8.85;;;7.93;;
12631;SDS011;6381;45.748;12.106;2023-05-08T08:08:31;8.60;;;7.90;;
12631;SDS011;6381;45.748;12.106;2023-05-08T08:11:01;8.38;;;7.68;;
12631;SDS011;6381;45.748;12.106;2023-05-08T08:13:31;8.45;;;7.65;;
12631;SDS011;6381;45.748;12.106;2023-05-08T08:16:02;8.20;;;7.50;;
12631;SDS011;6381;45.748;12.106;2023-05-08T08:18:32;8.57;;;7.82;;
12631;SDS011;6381;45.748;12.106;2023-05-08T08:21:06;8.00;;;7.22;;
12631;SDS011;6381;45.748;12.106;2023-05-08T08:23:38;7.63;;;6.97;;
12631;SDS011;6381;45.748;12.106;2023-05-08T08:26:08;7.97;;;7.18;;
12631;SDS011;6381;45.748;12.106;2023-05-08T08:28:38;8.02;;;7.22;;
12631;SDS011;6381;45.748;12.106;2023-05-08T08:31:08;8.15;;;7.43;;
12631;SDS011;6381;45.748;12.106;2023-05-08T08:33:38;8.02;;;7.25;;
12631;SDS011;6381;45.748;12.106;2023-05-08T08:36:11;7.53;;;6.78;;
12631;SDS011;6381;45.748;12.106;2023-05-08T08:38:44;7.47;;;6.75;;
12631;SDS011;6381;45.748;12.106;2023-05-08T08:41:13;8.52;;;7.32;;
12631;SDS011;6381;45.748;12.106;2023-05-08T08:43:44;8.38;;;7.57;;
12631;SDS011;6381;45.748;12.106;2023-05-08T08:46:14;7.68;;;7.07;;
12631;SDS011;6381;45.748;12.106;2023-05-08T08:48:47;8.60;;;7.75;;
12631;SDS011;6381;45.748;12.106;2023-05-08T08:51:22;8.75;;;7.97;;
12631;SDS011;6381;45.748;12.106;2023-05-08T08:54:01;8.05;;;7.35;;
12631;SDS011;6381;45.748;12.106;2023-05-08T08:56:36;8.13;;;7.43;;
12631;SDS011;6381;45.748;12.106;2023-05-08T08:59:09;7.70;;;7.00;;
12631;SDS011;6381;45.748;12.106;2023-05-08T09:01:41;8.52;;;7.22;;
12631;SDS011;6381;45.748;12.106;2023-05-08T09:04:14;7.90;;;7.20;;
12631;SDS011;6381;45.748;12.106;2023-05-08T09:06:45;8.00;;;7.30;;
12631;SDS011;6381;45.748;12.106;2023-05-08T09:09:18;8.50;;;7.70;;
12631;SDS011;6381;45.748;12.106;2023-05-08T09:11:50;8.82;;;7.97;;
12631;SDS011;6381;45.748;12.106;2023-05-08T09:14:20;8.75;;;8.05;;
12631;SDS011;6381;45.748;12.106;2023-05-08T09:16:52;8.98;;;8.07;;
12631;SDS011;6381;45.748;12.106;2023-05-08T09:19:22;8.43;;;7.72;;
12631;SDS011;6381;45.748;12.106;2023-05-08T09:21:57;8.85;;;8.15;;
12631;SDS011;6381;45.748;12.106;2023-05-08T09:27:25;8.55;;;7.85;;
12631;SDS011;6381;45.748;12.106;2023-05-08T09:29:57;10.00;;;8.98;;
12631;SDS011;6381;45.748;12.106;2023-05-08T09:32:32;9.07;;;8.27;;
12631;SDS011;6381;45.748;12.106;2023-05-08T09:35:04;9.07;;;8.18;;
12631;SDS011;6381;45.748;12.106;2023-05-08T09:37:36;9.10;;;8.23;;
12631;SDS011;6381;45.748;12.106;2023-05-08T09:40:15;8.95;;;8.10;;
12631;SDS011;6381;45.748;12.106;2023-05-08T09:42:47;9.45;;;8.55;;
12631;SDS011;6381;45.748;12.106;2023-05-08T09:45:27;8.63;;;7.93;;
12631;SDS011;6381;45.748;12.106;2023-05-08T09:47:58;9.73;;;8.73;;
12631;SDS011;6381;45.748;12.106;2023-05-08T09:50:28;8.68;;;7.97;;
12631;SDS011;6381;45.748;12.106;2023-05-08T09:52:59;9.30;;;8.45;;
12631;SDS011;6381;45.748;12.106;2023-05-08T09:55:33;10.65;;;8.75;;
12631;SDS011;6381;45.748;12.106;2023-05-08T09:58:15;9.68;;;8.68;;
12631;SDS011;6381;45.748;12.106;2023-05-08T10:00:45;9.43;;;8.25;;
12631;SDS011;6381;45.748;12.106;2023-05-08T10:03:15;12.00;;;9.40;;
12631;SDS011;6381;45.748;12.106;2023-05-08T10:05:45;9.15;;;8.30;;
12631;SDS011;6381;45.748;12.106;2023-05-08T10:08:18;8.40;;;7.63;;
12631;SDS011;6381;45.748;12.106;2023-05-08T10:10:51;9.80;;;8.90;;
12631;SDS011;6381;45.748;12.106;2023-05-08T10:13:21;9.80;;;8.20;;
12631;SDS011;6381;45.748;12.106;2023-05-08T10:15:52;8.95;;;8.07;;
12631;SDS011;6381;45.748;12.106;2023-05-08T10:18:24;9.65;;;8.07;;
12631;SDS011;6381;45.748;12.106;2023-05-08T10:20:59;9.07;;;8.18;;
12631;SDS011;6381;45.748;12.106;2023-05-08T10:23:35;8.85;;;8.00;;
12631;SDS011;6381;45.748;12.106;2023-05-08T10:26:10;9.05;;;8.20;;
12631;SDS011;6381;45.748;12.106;2023-05-08T10:28:43;8.52;;;7.72;;
12631;SDS011;6381;45.748;12.106;2023-05-08T10:31:23;8.00;;;7.30;;
12631;SDS011;6381;45.748;12.106;2023-05-08T10:33:55;8.07;;;7.30;;
12631;SDS011;6381;45.748;12.106;2023-05-08T10:36:29;8.13;;;7.40;;
12631;SDS011;6381;45.748;12.106;2023-05-08T10:39:00;7.70;;;7.00;;
12631;SDS011;6381;45.748;12.106;2023-05-08T10:41:32;7.18;;;6.57;;
12631;SDS011;6381;45.748;12.106;2023-05-08T10:44:04;7.15;;;6.45;;
12631;SDS011;6381;45.748;12.106;2023-05-08T10:46:36;6.10;;;5.55;;
12631;SDS011;6381;45.748;12.106;2023-05-08T10:49:11;6.40;;;5.88;;
12631;SDS011;6381;45.748;12.106;2023-05-08T10:51:50;6.13;;;5.60;;
12631;SDS011;6381;45.748;12.106;2023-05-08T10:54:33;6.38;;;5.82;;
12631;SDS011;6381;45.748;12.106;2023-05-08T10:57:12;5.97;;;5.47;;
12631;SDS011;6381;45.748;12.106;2023-05-08T10:59:44;6.70;;;6.10;;
12631;SDS011;6381;45.748;12.106;2023-05-08T11:02:15;6.05;;;5.45;;
12631;SDS011;6381;45.748;12.106;2023-05-08T11:04:55;6.00;;;5.50;;
12631;SDS011;6381;45.748;12.106;2023-05-08T11:07:54;7.00;;;6.40;;
12631;SDS011;6381;45.748;12.106;2023-05-08T11:10:28;7.50;;;6.78;;
12631;SDS011;6381;45.748;12.106;2023-05-08T11:13:00;6.60;;;6.00;;
12631;SDS011;6381;45.748;12.106;2023-05-08T11:15:34;7.45;;;6.75;;
12631;SDS011;6381;45.748;12.106;2023-05-08T11:18:05;7.10;;;6.50;;
12631;SDS011;6381;45.748;12.106;2023-05-08T11:20:38;7.30;;;6.40;;
12631;SDS011;6381;45.748;12.106;2023-05-08T11:26:00;10.65;;;7.45;;
12631;SDS011;6381;45.748;12.106;2023-05-08T11:28:36;8.80;;;8.10;;
12631;SDS011;6381;45.748;12.106;2023-05-08T11:31:07;7.63;;;6.95;;
12631;SDS011;6381;45.748;12.106;2023-05-08T11:33:37;8.25;;;7.55;;
12631;SDS011;6381;45.748;12.106;2023-05-08T11:36:11;8.10;;;7.40;;
12631;SDS011;6381;45.748;12.106;2023-05-08T11:38:42;7.75;;;7.05;;
12631;SDS011;6381;45.748;12.106;2023-05-08T11:41:33;8.15;;;7.45;;
12631;SDS011;6381;45.748;12.106;2023-05-08T11:44:15;7.28;;;6.63;;
12631;SDS011;6381;45.748;12.106;2023-05-08T11:46:50;8.50;;;7.50;;
12631;SDS011;6381;45.748;12.106;2023-05-08T11:49:21;8.18;;;7.47;;
12631;SDS011;6381;45.748;12.106;2023-05-08T11:51:56;7.22;;;6.63;;
12631;SDS011;6381;45.748;12.106;2023-05-08T11:54:28;8.25;;;7.55;;
12631;SDS011;6381;45.748;12.106;2023-05-08T11:56:58;8.38;;;7.30;;
12631;SDS011;6381;45.748;12.106;2023-05-08T11:59:34;7.47;;;6.85;;
12631;SDS011;6381;45.748;12.106;2023-05-08T12:02:04;7.47;;;6.88;;
12631;SDS011;6381;45.748;12.106;2023-05-08T12:04:45;7.80;;;7.00;;
12631;SDS011;6381;45.748;12.106;2023-05-08T12:07:16;7.78;;;7.03;;
12631;SDS011;6381;45.748;12.106;2023-05-08T12:09:46;8.73;;;7.82;;
12631;SDS011;6381;45.748;12.106;2023-05-08T12:12:16;7.28;;;6.57;;
12631;SDS011;6381;45.748;12.106;2023-05-08T12:14:49;7.60;;;6.90;;
12631;SDS011;6381;45.748;12.106;2023-05-08T12:17:19;8.55;;;7.75;;
12631;SDS011;6381;45.748;12.106;2023-05-08T12:19:53;10.90;;;8.70;;
12631;SDS011;6381;45.748;12.106;2023-05-08T12:22:25;8.52;;;7.70;;
12631;SDS011;6381;45.748;12.106;2023-05-08T12:24:55;7.95;;;7.25;;
12631;SDS011;6381;45.748;12.106;2023-05-08T12:27:25;9.75;;;8.80;;
12631;SDS011;6381;45.748;12.106;2023-05-08T12:29:57;8.50;;;7.70;;
12631;SDS011;6381;45.748;12.106;2023-05-08T12:32:27;8.63;;;7.60;;
12631;SDS011;6381;45.748;12.106;2023-05-08T12:34:57;8.48;;;7.68;;
12631;SDS011;6381;45.748;12.106;2023-05-08T12:37:28;9.35;;;7.63;;
12631;SDS011;6381;45.748;12.106;2023-05-08T12:39:58;8.18;;;7.50;;
12631;SDS011;6381;45.748;12.106;2023-05-08T12:42:41;8.20;;;7.40;;
12631;SDS011;6381;45.748;12.106;2023-05-08T12:45:19;8.43;;;7.55;;
12631;SDS011;6381;45.748;12.106;2023-05-08T12:47:52;8.90;;;8.10;;
12631;SDS011;6381;45.748;12.106;2023-05-08T12:50:26;10.07;;;8.52;;
12631;SDS011;6381;45.748;12.106;2023-05-08T12:53:00;8.77;;;8.02;;
12631;SDS011;6381;45.748;12.106;2023-05-08T12:55:33;11.07;;;9.98;;
12631;SDS011;6381;45.748;12.106;2023-05-08T12:58:04;11.15;;;10.15;;
12631;SDS011;6381;45.748;12.106;2023-05-08T13:00:42;11.07;;;9.98;;
12631;SDS011;6381;45.748;12.106;2023-05-08T13:03:23;9.93;;;9.07;;
12631;SDS011;6381;45.748;12.106;2023-05-08T13:05:54;9.70;;;8.90;;
12631;SDS011;6381;45.748;12.106;2023-05-08T13:08:30;9.77;;;9.00;;
12631;SDS011;6381;45.748;12.106;2023-05-08T13:11:02;9.90;;;8.95;;
12631;SDS011;6381;45.748;12.106;2023-05-08T13:13:35;10.88;;;9.32;;
12631;SDS011;6381;45.748;12.106;2023-05-08T13:16:06;9.95;;;9.00;;
12631;SDS011;6381;45.748;12.106;2023-05-08T13:18:38;10.65;;;8.90;;
12631;SDS011;6381;45.748;12.106;2023-05-08T13:21:08;9.95;;;9.00;;
12631;SDS011;6381;45.748;12.106;2023-05-08T13:23:38;10.18;;;8.25;;
12631;SDS011;6381;45.748;12.106;2023-05-08T13:26:09;9.65;;;8.70;;
12631;SDS011;6381;45.748;12.106;2023-05-08T13:28:40;9.68;;;8.73;;
12631;SDS011;6381;45.748;12.106;2023-05-08T13:31:11;10.68;;;9.18;;
12631;SDS011;6381;45.748;12.106;2023-05-08T13:33:43;9.73;;;8.82;;
12631;SDS011;6381;45.748;12.106;2023-05-08T13:36:14;9.13;;;8.32;;
12631;SDS011;6381;45.748;12.106;2023-05-08T13:38:44;9.35;;;8.55;;
12631;SDS011;6381;45.748;12.106;2023-05-08T13:41:14;10.35;;;9.25;;
12631;SDS011;6381;45.748;12.106;2023-05-08T13:43:44;10.40;;;9.32;;
12631;SDS011;6381;45.748;12.106;2023-05-08T13:46:17;9.25;;;8.35;;
12631;SDS011;6381;45.748;12.106;2023-05-08T13:48:47;9.02;;;8.13;;
12631;SDS011;6381;45.748;12.106;2023-05-08T13:51:17;9.63;;;8.82;;
12631;SDS011;6381;45.748;12.106;2023-05-08T13:53:47;10.85;;;9.85;;
12631;SDS011;6381;45.748;12.106;2023-05-08T13:56:17;10.57;;;9.45;;
12631;SDS011;6381;45.748;12.106;2023-05-08T13:58:47;9.38;;;8.45;;
12631;SDS011;6381;45.748;12.106;2023-05-08T14:01:19;9.98;;;8.85;;
12631;SDS011;6381;45.748;12.106;2023-05-08T14:03:53;9.73;;;8.75;;
12631;SDS011;6381;45.748;12.106;2023-05-08T14:06:23;8.38;;;7.65;;
12631;SDS011;6381;45.748;12.106;2023-05-08T14:08:53;9.95;;;8.60;;
12631;SDS011;6381;45.748;12.106;2023-05-08T14:11:23;11.02;;;8.68;;
12631;SDS011;6381;45.748;12.106;2023-05-08T14:13:54;9.68;;;8.68;;
12631;SDS011;6381;45.748;12.106;2023-05-08T14:16:25;9.57;;;8.57;;
12631;SDS011;6381;45.748;12.106;2023-05-08T14:18:56;9.70;;;8.20;;
12631;SDS011;6381;45.748;12.106;2023-05-08T14:21:26;11.02;;;8.93;;
12631;SDS011;6381;45.748;12.106;2023-05-08T14:23:58;13.00;;;9.50;;
12631;SDS011;6381;45.748;12.106;2023-05-08T14:26:30;11.63;;;8.70;;
12631;SDS011;6381;45.748;12.106;2023-05-08T14:29:01;11.43;;;9.05;;
12631;SDS011;6381;45.748;12.106;2023-05-08T14:31:32;9.65;;;8.65;;
12631;SDS011;6381;45.748;12.106;2023-05-08T14:34:03;10.07;;;8.45;;
12631;SDS011;6381;45.748;12.106;2023-05-08T14:36:32;10.45;;;8.50;;
12631;SDS011;6381;45.748;12.106;2023-05-08T14:39:04;9.30;;;8.27;;
12631;SDS011;6381;45.748;12.106;2023-05-08T14:41:34;12.38;;;8.23;;
12631;SDS011;6381;45.748;12.106;2023-05-08T14:44:06;10.68;;;8.18;;
12631;SDS011;6381;45.748;12.106;2023-05-08T14:46:37;8.88;;;8.02;;
12631;SDS011;6381;45.748;12.106;2023-05-08T14:49:07;9.00;;;8.18;;
12631;SDS011;6381;45.748;12.106;2023-05-08T14:51:48;10.18;;;8.85;;
12631;SDS011;6381;45.748;12.106;2023-05-08T14:54:17;9.32;;;8.43;;
12631;SDS011;6381;45.748;12.106;2023-05-08T14:56:48;8.98;;;8.07;;
12631;SDS011;6381;45.748;12.106;2023-05-08T14:59:17;7.97;;;7.28;;
12631;SDS011;6381;45.748;12.106;2023-05-08T15:01:49;8.60;;;7.80;;
12631;SDS011;6381;45.748;12.106;2023-05-08T15:04:20;10.07;;;7.70;;
12631;SDS011;6381;45.748;12.106;2023-05-08T15:06:50;9.57;;;8.60;;
12631;SDS011;6381;45.748;12.106;2023-05-08T15:09:21;9.18;;;8.27;;
12631;SDS011;6381;45.748;12.106;2023-05-08T15:11:54;10.73;;;8.60;;
12631;SDS011;6381;45.748;12.106;2023-05-08T15:14:27;10.13;;;9.25;;
12631;SDS011;6381;45.748;12.106;2023-05-08T15:17:00;10.68;;;9.68;;
12631;SDS011;6381;45.748;12.106;2023-05-08T15:19:33;10.10;;;9.02;;
12631;SDS011;6381;45.748;12.106;2023-05-08T15:22:05;12.55;;;9.75;;